createdAt,value
2023-09-18T00:00:10.182Z,19.29
2023-09-18T00:02:11.722Z,19.27
2023-09-18T00:04:13.486Z,19.25
2023-09-18T00:06:14.965Z,19.20
2023-09-18T00:08:17.940Z,19.18
2023-09-18T00:10:19.377Z,19.17
2023-09-18T00:12:20.841Z,19.18
2023-09-18T00:14:22.270Z,19.16
2023-09-18T00:16:24.122Z,19.12
2023-09-18T00:18:25.924Z,19.11
2023-09-18T00:20:28.278Z,19.11
2023-09-18T00:22:29.910Z,19.09
2023-09-18T00:24:31.316Z,19.09
2023-09-18T00:26:32.821Z,19.06
2023-09-18T00:28:34.257Z,19.02
2023-09-18T00:30:36.009Z,19.01
2023-09-18T00:32:37.456Z,18.96
2023-09-18T00:34:39.422Z,18.97
2023-09-18T00:36:40.981Z,18.95
2023-09-18T00:38:42.398Z,18.93
2023-09-18T00:40:44.245Z,18.90
2023-09-18T00:42:46.612Z,18.89
2023-09-18T00:44:48.141Z,18.88
2023-09-18T00:46:50.427Z,18.88
2023-09-18T00:48:52.469Z,18.86
2023-09-18T00:50:54.158Z,18.85
2023-09-18T00:52:55.921Z,18.88
2023-09-18T00:54:57.542Z,18.85
2023-09-18T00:56:59.141Z,18.82
2023-09-18T00:59:01.240Z,18.83
2023-09-18T01:01:04.467Z,18.83
2023-09-18T01:03:06.348Z,18.82
2023-09-18T01:05:07.994Z,18.81
2023-09-18T01:07:09.429Z,18.81
2023-09-18T01:09:14.127Z,18.79
2023-09-18T01:11:25.055Z,18.78
2023-09-18T01:13:35.036Z,18.78
2023-09-18T01:15:46.177Z,18.76
2023-09-18T01:17:48.153Z,18.75
2023-09-18T01:19:49.681Z,18.72
2023-09-18T01:21:51.082Z,18.71
2023-09-18T01:23:52.797Z,18.71
2023-09-18T01:25:54.273Z,18.68
2023-09-18T01:27:55.742Z,18.70
2023-09-18T01:29:57.172Z,18.65
2023-09-18T01:31:59.320Z,18.64
2023-09-18T01:34:01.986Z,18.63
2023-09-18T01:36:04.695Z,18.62
2023-09-18T01:38:07.227Z,18.63
2023-09-18T01:40:09.179Z,18.61
2023-09-18T01:42:10.861Z,18.60
2023-09-18T01:44:12.762Z,18.61
2023-09-18T01:46:14.646Z,18.61
2023-09-18T01:48:16.246Z,18.62
2023-09-18T01:50:17.726Z,18.62
2023-09-18T01:52:19.474Z,18.62
2023-09-18T01:54:21.393Z,18.65
2023-09-18T01:56:24.332Z,18.64
2023-09-18T01:58:25.821Z,18.64
2023-09-18T02:00:27.792Z,18.63
2023-09-18T02:02:43.157Z,18.63
2023-09-18T02:05:06.867Z,18.62
2023-09-18T02:07:10.930Z,18.62
2023-09-18T02:09:12.749Z,18.62
2023-09-18T02:11:14.254Z,18.60
2023-09-18T02:13:17.882Z,18.60
2023-09-18T02:15:24.280Z,18.60
2023-09-18T02:17:25.804Z,18.60
2023-09-18T02:19:27.382Z,18.63
2023-09-18T02:21:29.049Z,18.62
2023-09-18T02:23:30.519Z,18.63
2023-09-18T02:25:31.967Z,18.64
2023-09-18T02:27:33.458Z,18.64
2023-09-18T02:29:35.072Z,18.63
2023-09-18T02:31:36.583Z,18.62
2023-09-18T02:33:39.100Z,18.65
2023-09-18T02:35:41.800Z,18.65
2023-09-18T02:37:43.267Z,18.68
2023-09-18T02:39:44.664Z,18.68
2023-09-18T02:41:46.092Z,18.70
2023-09-18T02:43:47.586Z,18.73
2023-09-18T02:45:48.996Z,18.73
2023-09-18T02:47:50.542Z,18.75
2023-09-18T02:49:52.017Z,18.78
2023-09-18T02:51:53.446Z,18.79
2023-09-18T02:53:54.921Z,18.79
2023-09-18T02:55:57.932Z,18.85
2023-09-18T02:58:00.114Z,18.85
2023-09-18T03:00:01.562Z,18.88
2023-09-18T03:02:03.279Z,18.88
2023-09-18T03:04:05.132Z,18.94
2023-09-18T03:06:07.581Z,18.95
2023-09-18T03:08:09.972Z,18.99
2023-09-18T03:10:14.646Z,19.02
2023-09-18T03:12:16.089Z,19.05
2023-09-18T03:14:17.585Z,19.06
2023-09-18T03:16:19.258Z,19.07
2023-09-18T03:18:20.833Z,19.09
2023-09-18T03:20:27.595Z,19.10
2023-09-18T03:22:29.095Z,19.12
2023-09-18T03:24:30.724Z,19.15
2023-09-18T03:26:32.273Z,19.21
2023-09-18T03:28:33.750Z,19.26
2023-09-18T03:30:35.242Z,19.26
2023-09-18T03:32:37.254Z,19.28
2023-09-18T03:36:41.166Z,19.31
2023-09-18T03:38:42.728Z,19.40
2023-09-18T03:40:44.620Z,19.39
2023-09-18T03:42:47.094Z,19.44
2023-09-18T03:44:48.518Z,19.44
2023-09-18T03:46:49.930Z,19.48
2023-09-18T03:48:51.772Z,19.55
2023-09-18T03:50:53.496Z,19.58
2023-09-18T03:52:54.913Z,19.56
2023-09-18T03:54:56.617Z,19.59
2023-09-18T03:56:58.261Z,19.64
2023-09-18T03:59:02.071Z,19.60
2023-09-18T04:01:03.870Z,19.75
2023-09-18T04:03:05.502Z,19.72
2023-09-18T04:05:08.499Z,19.71
2023-09-18T04:07:10.336Z,19.73
2023-09-18T04:09:11.814Z,19.72
2023-09-18T04:11:13.463Z,19.72
2023-09-18T04:13:14.926Z,19.75
2023-09-18T04:15:16.644Z,19.71
2023-09-18T04:17:18.386Z,19.76
2023-09-18T04:19:20.318Z,19.79
2023-09-18T04:21:22.610Z,19.76
2023-09-18T04:23:26.719Z,19.82
2023-09-18T04:25:28.174Z,19.81
2023-09-18T04:27:29.606Z,19.84
2023-09-18T04:29:31.175Z,19.89
2023-09-18T04:31:33.017Z,19.90
2023-09-18T04:33:34.625Z,19.87
2023-09-18T04:35:36.175Z,19.86
2023-09-18T04:37:38.933Z,19.86
2023-09-18T04:39:40.740Z,19.86
2023-09-18T04:41:42.222Z,19.94
2023-09-18T04:43:43.830Z,19.97
2023-09-18T04:45:46.284Z,20.06
2023-09-18T04:47:47.843Z,20.06
2023-09-18T04:49:50.398Z,20.04
2023-09-18T04:51:51.813Z,20.10
2023-09-18T04:53:53.408Z,20.14
2023-09-18T04:55:55.442Z,20.17
2023-09-18T04:57:59.218Z,20.20
2023-09-18T05:00:15.571Z,20.24
2023-09-18T05:02:18.350Z,20.23
2023-09-18T05:04:19.826Z,20.20
2023-09-18T05:06:21.820Z,20.18
2023-09-18T05:08:23.698Z,20.21
2023-09-18T05:10:25.287Z,20.18
2023-09-18T05:12:26.819Z,20.17
2023-09-18T05:14:28.895Z,20.16
2023-09-18T05:16:30.398Z,20.10
2023-09-18T05:18:32.788Z,20.11
2023-09-18T05:20:35.899Z,20.09
2023-09-18T05:22:37.527Z,20.08
2023-09-18T05:24:39.717Z,20.09
2023-09-18T05:26:41.159Z,20.10
2023-09-18T05:28:42.671Z,20.06
2023-09-18T05:30:44.143Z,20.08
2023-09-18T05:32:46.904Z,20.04
2023-09-18T05:34:48.595Z,20.04
2023-09-18T05:36:50.226Z,20.05
2023-09-18T05:38:51.940Z,20.08
2023-09-18T05:40:53.655Z,20.06
2023-09-18T05:42:57.091Z,20.04
2023-09-18T05:44:58.533Z,20.03
2023-09-18T05:47:00.299Z,20.01
2023-09-18T05:49:02.336Z,20.06
2023-09-18T05:51:04.947Z,20.05
2023-09-18T05:53:06.560Z,20.03
2023-09-18T05:55:08.586Z,20.03
2023-09-18T05:57:10.051Z,20.06
2023-09-18T05:59:11.601Z,20.03
2023-09-18T06:01:13.074Z,20.04
2023-09-18T06:03:16.112Z,20.09
2023-09-18T06:05:18.738Z,20.08
2023-09-18T06:07:20.292Z,20.11
2023-09-18T06:09:22.074Z,20.17
2023-09-18T06:11:23.587Z,20.17
2023-09-18T06:13:25.802Z,20.17
2023-09-18T06:15:27.254Z,20.13
2023-09-18T06:17:28.839Z,20.18
2023-09-18T06:19:30.355Z,20.17
2023-09-18T06:21:32.875Z,20.18
2023-09-18T06:23:38.722Z,20.19
2023-09-18T06:25:40.864Z,20.17
2023-09-18T06:27:43.300Z,20.21
2023-09-18T06:29:44.785Z,20.20
2023-09-18T06:31:47.198Z,20.20
2023-09-18T06:33:48.683Z,20.23
2023-09-18T06:35:50.147Z,20.22
2023-09-18T06:37:51.710Z,20.23
2023-09-18T06:39:53.207Z,20.25
2023-09-18T06:41:54.726Z,20.27
2023-09-18T06:43:56.215Z,20.25
2023-09-18T06:45:58.919Z,20.28
2023-09-18T06:48:01.495Z,20.31
2023-09-18T06:50:05.376Z,20.33
2023-09-18T06:52:07.408Z,20.36
2023-09-18T06:54:09.029Z,20.34
2023-09-18T06:56:10.557Z,20.36
2023-09-18T06:58:12.045Z,20.38
2023-09-18T07:00:16.041Z,20.40
2023-09-18T07:02:17.869Z,20.37
2023-09-18T07:04:19.362Z,20.45
2023-09-18T07:06:21.360Z,20.51
2023-09-18T07:08:24.262Z,20.52
2023-09-18T07:10:25.834Z,20.55
2023-09-18T07:12:27.345Z,20.54
2023-09-18T07:14:28.957Z,20.58
2023-09-18T07:16:30.542Z,20.63
2023-09-18T07:18:32.034Z,20.63
2023-09-18T07:20:33.539Z,20.72
2023-09-18T07:22:35.042Z,20.75
2023-09-18T07:24:36.514Z,20.70
2023-09-18T07:26:38.077Z,20.77
2023-09-18T07:28:42.386Z,20.74
2023-09-18T07:30:44.794Z,20.77
2023-09-18T07:32:47.213Z,20.79
2023-09-18T07:34:48.810Z,20.80
2023-09-18T07:36:55.107Z,20.94
2023-09-18T07:38:57.532Z,20.90
2023-09-18T07:40:59.402Z,20.95
2023-09-18T07:43:00.981Z,20.97
2023-09-18T07:45:03.308Z,21.04
2023-09-18T07:47:04.902Z,21.06
2023-09-18T07:49:06.370Z,21.09
2023-09-18T07:53:16.210Z,21.13
2023-09-18T07:55:17.788Z,21.15
2023-09-18T07:57:20.493Z,21.25
2023-09-18T07:59:21.933Z,21.20
2023-09-18T08:01:23.873Z,21.33
2023-09-18T08:03:26.024Z,21.32
2023-09-18T08:05:32.765Z,21.31
2023-09-18T08:07:34.559Z,21.34
2023-09-18T08:09:37.423Z,21.40
2023-09-18T08:11:42.955Z,21.40
2023-09-18T08:13:44.472Z,21.45
2023-09-18T08:15:46.285Z,21.51
2023-09-18T08:17:49.639Z,21.46
2023-09-18T08:19:53.367Z,21.51
2023-09-18T08:21:55.706Z,21.48
2023-09-18T08:23:57.112Z,21.40
2023-09-18T08:25:59.366Z,21.51
2023-09-18T08:28:01.564Z,21.52
2023-09-18T08:30:03.369Z,21.59
2023-09-18T08:32:04.882Z,21.61
2023-09-18T08:34:06.405Z,21.50
2023-09-18T08:36:07.956Z,21.62
2023-09-18T08:38:09.509Z,21.53
2023-09-18T08:40:12.654Z,21.54
2023-09-18T08:42:16.307Z,21.48
2023-09-18T08:44:18.945Z,21.45
2023-09-18T08:46:22.007Z,21.44
2023-09-18T08:48:23.639Z,21.45
2023-09-18T08:50:26.418Z,21.46
2023-09-18T08:52:29.026Z,21.54
2023-09-18T08:54:30.540Z,21.63
2023-09-18T08:56:35.022Z,21.70
2023-09-18T08:58:40.866Z,21.78
2023-09-18T09:00:42.341Z,21.84
2023-09-18T09:02:49.820Z,21.77
2023-09-18T09:04:52.932Z,21.79
2023-09-18T09:06:54.634Z,21.80
2023-09-18T09:08:56.763Z,21.81
2023-09-18T09:11:01.465Z,21.85
2023-09-18T09:13:03.753Z,21.89
2023-09-18T09:15:05.918Z,21.90
2023-09-18T09:17:07.580Z,22.00
2023-09-18T09:19:09.066Z,22.13
2023-09-18T09:21:11.724Z,22.18
2023-09-18T09:23:13.152Z,22.42
2023-09-18T09:25:29.480Z,22.38
2023-09-18T09:27:43.190Z,22.24
2023-09-18T09:29:58.396Z,22.30
2023-09-18T09:32:14.441Z,22.46
2023-09-18T09:34:28.001Z,22.64
2023-09-18T09:36:29.513Z,22.57
2023-09-18T09:38:34.765Z,22.87
2023-09-18T09:40:39.118Z,22.98
2023-09-18T09:42:44.227Z,22.91
2023-09-18T09:44:47.089Z,22.79
2023-09-18T09:46:49.450Z,22.71
2023-09-18T09:49:03.050Z,22.79
2023-09-18T09:51:04.547Z,22.86
2023-09-18T09:53:06.018Z,22.99
2023-09-18T09:55:26.354Z,22.92
2023-09-18T09:57:27.762Z,23.00
2023-09-18T09:59:30.480Z,22.90
2023-09-18T10:01:32.381Z,22.83
2023-09-18T10:03:35.076Z,23.05
2023-09-18T10:05:39.644Z,23.01
2023-09-18T10:07:41.739Z,22.94
2023-09-18T10:09:44.884Z,23.01
2023-09-18T10:11:50.068Z,23.01
2023-09-18T10:14:20.047Z,22.88
2023-09-18T10:16:26.865Z,23.02
2023-09-18T10:18:47.693Z,23.04
2023-09-18T10:20:54.927Z,23.04
2023-09-18T10:22:58.102Z,23.03
2023-09-18T10:25:18.434Z,23.07
2023-09-18T10:27:22.643Z,23.03
2023-09-18T10:29:27.477Z,23.26
2023-09-18T10:31:29.865Z,23.17
2023-09-18T10:33:32.019Z,23.31
2023-09-18T10:35:33.476Z,23.24
2023-09-18T10:37:37.110Z,23.37
2023-09-18T10:39:43.292Z,23.37
2023-09-18T10:41:46.249Z,23.27
2023-09-18T10:43:51.000Z,23.44
2023-09-18T10:45:53.066Z,23.23
2023-09-18T10:47:56.370Z,23.41
2023-09-18T10:49:57.998Z,23.21
2023-09-18T10:52:00.319Z,23.31
2023-09-18T10:54:01.832Z,23.41
2023-09-18T10:56:07.159Z,23.58
2023-09-18T10:58:08.681Z,23.25
2023-09-18T11:00:15.229Z,23.38
2023-09-18T11:02:18.511Z,23.40
2023-09-18T11:04:21.863Z,23.54
2023-09-18T11:06:27.662Z,23.44
2023-09-18T11:08:35.004Z,23.37
2023-09-18T11:10:38.187Z,23.33
2023-09-18T11:12:46.407Z,23.42
2023-09-18T11:14:51.201Z,23.30
2023-09-18T11:16:52.966Z,23.15
2023-09-18T11:18:55.754Z,23.36
2023-09-18T11:21:11.329Z,23.61
2023-09-18T11:23:15.856Z,23.75
2023-09-18T11:25:35.765Z,23.95
2023-09-18T11:27:59.025Z,23.89
2023-09-18T11:30:02.250Z,23.84
2023-09-18T11:32:05.788Z,23.79
2023-09-18T11:34:13.194Z,23.87
2023-09-18T11:36:23.691Z,23.88
2023-09-18T11:38:25.289Z,23.86
2023-09-18T11:40:42.766Z,24.02
2023-09-18T11:43:20.641Z,23.99
2023-09-18T11:45:22.219Z,23.88
2023-09-18T11:47:28.920Z,23.91
2023-09-18T11:49:33.117Z,24.07
2023-09-18T11:54:02.149Z,24.06
2023-09-18T11:56:04.530Z,24.18
2023-09-18T11:58:06.925Z,24.34
2023-09-18T12:00:23.242Z,24.24
2023-09-18T12:02:37.089Z,24.36
2023-09-18T12:04:40.381Z,24.26
2023-09-18T12:06:43.127Z,24.41
2023-09-18T12:08:44.817Z,24.31
2023-09-18T12:10:50.222Z,24.48
2023-09-18T12:12:51.710Z,24.68
2023-09-18T12:14:53.259Z,24.60
2023-09-18T12:16:54.721Z,24.62
2023-09-18T12:18:56.197Z,24.88
2023-09-18T12:21:00.103Z,24.84
2023-09-18T12:23:03.634Z,24.91
2023-09-18T12:25:16.650Z,25.08
2023-09-18T12:27:18.889Z,25.19
2023-09-18T12:29:24.223Z,25.11
2023-09-18T12:31:25.830Z,25.20
2023-09-18T12:33:27.494Z,25.23
2023-09-18T12:35:31.155Z,25.16
2023-09-18T12:37:32.800Z,25.29
2023-09-18T12:39:34.311Z,25.21
2023-09-18T12:41:36.522Z,25.69
2023-09-18T12:43:42.883Z,25.83
2023-09-18T12:45:45.178Z,25.53
2023-09-18T12:47:47.168Z,25.92
2023-09-18T12:49:48.739Z,26.07
2023-09-18T12:52:00.365Z,26.13
2023-09-18T12:54:07.623Z,25.90
2023-09-18T12:56:15.962Z,26.25
2023-09-18T12:58:20.965Z,26.44
2023-09-18T13:00:24.086Z,26.02
2023-09-18T13:04:33.054Z,26.15
2023-09-18T13:06:39.127Z,26.14
2023-09-18T13:08:40.640Z,25.85
2023-09-18T13:10:46.660Z,25.82
2023-09-18T13:12:55.039Z,25.62
2023-09-18T13:15:06.139Z,25.58
2023-09-18T13:17:07.751Z,25.51
2023-09-18T13:19:09.257Z,25.35
2023-09-18T13:21:12.627Z,25.26
2023-09-18T13:23:14.234Z,25.28
2023-09-18T13:25:22.118Z,25.90
2023-09-18T13:27:24.434Z,25.75
2023-09-18T13:29:26.157Z,25.65
2023-09-18T13:31:29.330Z,25.53
2023-09-18T13:33:31.058Z,25.63
2023-09-18T13:35:34.035Z,25.45
2023-09-18T13:37:36.622Z,25.42
2023-09-18T13:39:38.135Z,25.37
2023-09-18T13:41:42.288Z,25.41
2023-09-18T13:43:44.364Z,25.45
2023-09-18T13:45:46.770Z,25.42
2023-09-18T13:47:50.868Z,25.28
2023-09-18T13:49:53.117Z,25.39
2023-09-18T13:51:55.586Z,25.04
2023-09-18T13:53:57.891Z,24.74
2023-09-18T13:55:59.470Z,24.81
2023-09-18T13:58:04.120Z,24.87
2023-09-18T14:00:07.970Z,24.88
2023-09-18T14:02:09.796Z,24.93
2023-09-18T14:04:11.974Z,24.93
2023-09-18T14:06:13.558Z,24.90
2023-09-18T14:08:15.104Z,25.16
2023-09-18T14:10:16.796Z,25.27
2023-09-18T14:12:18.282Z,25.06
2023-09-18T14:14:19.826Z,25.00
2023-09-18T14:16:21.336Z,24.77
2023-09-18T14:18:22.943Z,24.71
2023-09-18T14:20:24.549Z,24.74
2023-09-18T14:22:26.339Z,24.75
2023-09-18T14:24:27.918Z,24.54
2023-09-18T14:26:29.362Z,24.44
2023-09-18T14:28:34.242Z,24.24
2023-09-18T14:30:35.912Z,24.19
2023-09-18T14:32:37.838Z,24.21
2023-09-18T14:34:40.038Z,24.40
2023-09-18T14:36:41.510Z,24.69
2023-09-18T14:38:43.010Z,24.86
2023-09-18T14:40:44.534Z,24.90
2023-09-18T14:42:45.983Z,24.82
2023-09-18T14:44:47.891Z,25.03
2023-09-18T14:46:50.389Z,25.07
2023-09-18T14:48:52.312Z,24.87
2023-09-18T14:50:56.966Z,24.79
2023-09-18T14:52:58.413Z,24.91
2023-09-18T14:57:27.819Z,25.15
2023-09-18T14:59:41.451Z,25.37
2023-09-18T15:01:44.690Z,25.28
2023-09-18T15:03:46.551Z,25.15
2023-09-18T15:05:48.679Z,24.84
2023-09-18T15:07:50.185Z,24.67
2023-09-18T15:09:51.602Z,24.71
2023-09-18T15:11:53.189Z,26.52
2023-09-18T15:13:54.616Z,29.68
2023-09-18T15:15:56.423Z,28.30
2023-09-18T15:17:58.775Z,27.27
2023-09-18T15:20:01.132Z,25.96
2023-09-18T15:22:04.068Z,25.39
2023-09-18T15:24:05.802Z,25.42
2023-09-18T15:26:08.114Z,25.30
2023-09-18T15:28:09.673Z,25.13
2023-09-18T15:30:12.432Z,25.42
2023-09-18T15:32:14.051Z,25.57
2023-09-18T15:34:15.637Z,25.58
2023-09-18T15:36:17.159Z,26.13
2023-09-18T15:38:18.686Z,25.70
2023-09-18T15:40:21.900Z,25.18
2023-09-18T15:42:23.426Z,24.79
2023-09-18T15:44:24.914Z,24.62
2023-09-18T15:46:26.434Z,24.48
2023-09-18T15:48:29.395Z,24.28
2023-09-18T15:50:38.260Z,24.29
2023-09-18T15:52:41.985Z,24.24
2023-09-18T15:54:45.220Z,24.24
2023-09-18T15:56:46.770Z,27.08
2023-09-18T15:58:49.132Z,32.31
2023-09-18T16:00:51.182Z,30.65
2023-09-18T16:02:52.894Z,29.37
2023-09-18T16:04:54.521Z,35.95
2023-09-18T16:06:55.940Z,33.14
2023-09-18T16:08:58.096Z,29.63
2023-09-18T16:11:00.567Z,27.71
2023-09-18T16:13:02.247Z,26.76
2023-09-18T16:15:05.688Z,26.18
2023-09-18T16:17:07.261Z,25.69
2023-09-18T16:19:08.793Z,25.40
2023-09-18T16:21:10.269Z,24.92
2023-09-18T16:23:11.722Z,24.96
2023-09-18T16:25:13.482Z,24.66
2023-09-18T16:27:15.056Z,24.49
2023-09-18T16:29:16.539Z,24.34
2023-09-18T16:31:17.982Z,24.19
2023-09-18T16:33:19.547Z,24.08
2023-09-18T16:35:21.045Z,23.91
2023-09-18T16:37:22.518Z,23.87
2023-09-18T16:39:26.690Z,23.84
2023-09-18T16:41:28.757Z,24.03
2023-09-18T16:43:36.294Z,24.02
2023-09-18T16:45:38.237Z,23.84
2023-09-18T16:47:39.848Z,23.81
2023-09-18T16:49:41.417Z,23.79
2023-09-18T16:51:45.709Z,23.77
2023-09-18T16:53:47.216Z,23.61
2023-09-18T16:55:48.784Z,23.43
2023-09-18T16:57:51.700Z,23.36
2023-09-18T16:59:55.215Z,23.17
2023-09-18T17:01:58.065Z,23.03
2023-09-18T17:03:59.744Z,22.99
2023-09-18T17:06:01.702Z,22.76
2023-09-18T17:08:07.685Z,22.73
2023-09-18T17:10:10.616Z,22.69
2023-09-18T17:12:13.468Z,22.50
2023-09-18T17:14:15.501Z,22.41
2023-09-18T17:16:20.145Z,22.22
2023-09-18T17:18:21.758Z,22.03
2023-09-18T17:20:23.871Z,22.01
2023-09-18T17:22:25.556Z,21.92
2023-09-18T17:24:27.006Z,21.90
2023-09-18T17:26:28.703Z,21.79
2023-09-18T17:28:30.226Z,21.78
2023-09-18T17:30:32.662Z,21.66
2023-09-18T17:32:35.820Z,21.67
2023-09-18T17:34:37.321Z,21.50
2023-09-18T17:36:41.679Z,21.41
2023-09-18T17:38:45.161Z,21.28
2023-09-18T17:40:46.796Z,21.23
2023-09-18T17:42:48.256Z,21.15
2023-09-18T17:44:50.452Z,21.09
2023-09-18T17:46:51.910Z,21.02
2023-09-18T17:48:53.341Z,20.88
2023-09-18T17:50:54.863Z,20.94
2023-09-18T17:52:56.313Z,20.86
2023-09-18T17:54:59.066Z,20.76
2023-09-18T17:57:00.883Z,20.69
2023-09-18T17:59:02.907Z,20.71
2023-09-18T18:01:06.423Z,20.69
2023-09-18T18:03:08.401Z,20.73
2023-09-18T18:05:10.319Z,20.79
2023-09-18T18:07:11.899Z,20.81
2023-09-18T18:09:13.430Z,20.74
2023-09-18T18:11:14.940Z,20.72
2023-09-18T18:13:16.544Z,20.63
2023-09-18T18:15:18.119Z,20.56
2023-09-18T18:17:20.049Z,20.50
2023-09-18T18:19:22.357Z,20.48
2023-09-18T18:21:23.864Z,20.52
2023-09-18T18:23:25.310Z,20.59
2023-09-18T18:25:27.192Z,20.59
2023-09-18T18:27:29.761Z,20.58
2023-09-18T18:29:31.216Z,20.58
2023-09-18T18:31:33.653Z,20.65
2023-09-18T18:33:35.828Z,20.65
2023-09-18T18:35:39.848Z,20.55
2023-09-18T18:37:41.350Z,19.62
2023-09-18T18:39:42.746Z,19.14
2023-09-18T18:41:44.210Z,18.81
2023-09-18T18:43:47.729Z,18.74
2023-09-18T18:45:53.466Z,18.46
2023-09-18T18:47:56.349Z,18.44
2023-09-18T18:49:57.816Z,18.20
2023-09-18T18:51:59.274Z,18.07
2023-09-18T18:54:07.160Z,17.92
2023-09-18T18:56:08.887Z,18.13
2023-09-18T18:58:10.325Z,17.99
2023-09-18T19:00:12.754Z,17.95
2023-09-18T19:02:14.402Z,17.91
2023-09-18T19:04:17.315Z,17.89
2023-09-18T19:06:18.840Z,17.83
2023-09-18T19:08:20.255Z,17.91
2023-09-18T19:10:21.671Z,17.78
2023-09-18T19:12:23.310Z,17.73
2023-09-18T19:14:24.730Z,17.77
2023-09-18T19:16:26.271Z,17.63
2023-09-18T19:18:31.131Z,17.55
2023-09-18T19:20:33.202Z,17.51
2023-09-18T19:22:35.868Z,17.51
2023-09-18T19:24:37.686Z,17.53
2023-09-18T19:26:39.198Z,17.50
2023-09-18T19:28:40.733Z,17.42
2023-09-18T19:30:46.918Z,17.44
2023-09-18T19:32:48.616Z,17.34
2023-09-18T19:34:50.641Z,17.32
2023-09-18T19:37:06.794Z,17.25
2023-09-18T19:39:10.212Z,17.21
2023-09-18T19:41:12.460Z,17.18
2023-09-18T19:43:14.746Z,17.25
2023-09-18T19:45:16.337Z,17.16
2023-09-18T19:47:18.548Z,17.11
2023-09-18T19:49:20.024Z,17.10
2023-09-18T19:51:21.517Z,17.04
2023-09-18T19:53:22.937Z,16.96
2023-09-18T19:55:29.706Z,16.92
2023-09-18T19:57:31.815Z,16.94
2023-09-18T19:59:33.240Z,16.83
2023-09-18T20:01:35.173Z,16.82
2023-09-18T20:03:36.844Z,16.84
2023-09-18T20:05:38.463Z,16.75
2023-09-18T20:07:39.918Z,16.75
2023-09-18T20:09:41.726Z,16.65
2023-09-18T20:11:43.293Z,16.65
2023-09-18T20:13:44.727Z,16.57
2023-09-18T20:15:46.175Z,16.55
2023-09-18T20:17:48.231Z,16.54
2023-09-18T20:19:50.376Z,16.52
2023-09-18T20:21:52.022Z,16.49
2023-09-18T20:23:54.437Z,16.46
2023-09-18T20:25:57.638Z,16.39
2023-09-18T20:27:59.067Z,16.33
2023-09-18T20:30:01.722Z,16.35
2023-09-18T20:32:04.292Z,16.36
2023-09-18T20:34:06.441Z,16.33
2023-09-18T20:36:08.064Z,16.32
2023-09-18T20:40:14.129Z,16.28
2023-09-18T20:42:15.575Z,16.30
2023-09-18T20:44:16.989Z,16.27
2023-09-18T20:46:18.461Z,16.29
2023-09-18T20:48:20.585Z,16.25
2023-09-18T20:50:22.146Z,16.24
2023-09-18T20:52:24.155Z,16.24
2023-09-18T20:54:25.594Z,16.24
2023-09-18T20:56:28.084Z,16.22
2023-09-18T20:58:30.313Z,16.27
2023-09-18T21:00:33.265Z,16.30
2023-09-18T21:02:34.899Z,16.28
2023-09-18T21:04:37.941Z,16.26
2023-09-18T21:06:39.369Z,16.31
2023-09-18T21:08:41.433Z,16.28
2023-09-18T21:10:42.906Z,16.19
2023-09-18T21:12:44.618Z,16.23
2023-09-18T21:14:46.187Z,16.21
2023-09-18T21:16:47.670Z,16.20
2023-09-18T21:18:50.203Z,16.20
2023-09-18T21:20:52.856Z,16.17
2023-09-18T21:22:54.405Z,16.08
2023-09-18T21:24:55.841Z,16.13
2023-09-18T21:26:57.318Z,16.17
2023-09-18T21:28:59.612Z,16.20
2023-09-18T21:31:16.370Z,16.18
2023-09-18T21:33:17.941Z,16.17
2023-09-18T21:35:20.150Z,16.08
2023-09-18T21:37:22.381Z,16.13
2023-09-18T21:39:23.804Z,16.16
2023-09-18T21:41:25.256Z,16.19
2023-09-18T21:43:26.701Z,16.18
2023-09-18T21:45:28.423Z,16.14
2023-09-18T21:47:30.003Z,16.15
2023-09-18T21:49:31.618Z,16.13
2023-09-18T21:51:35.436Z,16.15
2023-09-18T21:55:47.497Z,16.14
2023-09-18T21:57:48.982Z,16.19
2023-09-18T21:59:50.449Z,16.26
2023-09-18T22:01:55.292Z,16.22
2023-09-18T22:03:56.809Z,16.22
2023-09-18T22:05:58.352Z,16.20
2023-09-18T22:08:00.420Z,16.21
2023-09-18T22:10:01.868Z,16.15
2023-09-18T22:12:05.160Z,16.21
2023-09-18T22:14:06.859Z,16.16
2023-09-18T22:16:08.774Z,16.19
2023-09-18T22:18:10.813Z,16.12
2023-09-18T22:20:14.983Z,16.07
2023-09-18T22:22:16.547Z,16.07
2023-09-18T22:24:20.083Z,16.08
2023-09-18T22:26:21.913Z,15.99
2023-09-18T22:28:23.903Z,16.05
2023-09-18T22:30:25.570Z,16.05
2023-09-18T22:32:27.138Z,16.00
2023-09-18T22:34:29.383Z,16.04
2023-09-18T22:36:30.896Z,16.01
2023-09-18T22:39:22.005Z,16.07
2023-09-18T22:41:23.992Z,16.04
2023-09-18T22:44:03.860Z,16.04
2023-09-18T22:46:43.113Z,16.12
2023-09-18T22:49:22.337Z,16.13
2023-09-18T22:52:01.317Z,16.15
2023-09-18T22:54:03.619Z,16.09
2023-09-18T22:56:08.518Z,16.02
2023-09-18T22:58:11.416Z,16.08
2023-09-18T23:00:19.157Z,16.05
2023-09-18T23:02:21.197Z,16.16
2023-09-18T23:04:22.989Z,16.14
2023-09-18T23:06:27.758Z,16.11
2023-09-18T23:08:31.115Z,16.07
2023-09-18T23:10:32.649Z,16.07
2023-09-18T23:12:35.410Z,16.10
2023-09-18T23:14:38.412Z,16.11
2023-09-18T23:16:39.910Z,16.07
2023-09-18T23:18:41.378Z,16.06
2023-09-18T23:20:42.818Z,16.02
2023-09-18T23:22:45.008Z,16.01
2023-09-18T23:24:47.193Z,15.97
2023-09-18T23:26:49.537Z,15.93
2023-09-18T23:28:50.970Z,15.94
2023-09-18T23:30:53.321Z,15.99
2023-09-18T23:32:57.094Z,15.98
2023-09-18T23:35:00.680Z,15.97
2023-09-18T23:37:04.496Z,15.93
2023-09-18T23:39:06.881Z,15.87
2023-09-18T23:41:09.872Z,15.87
2023-09-18T23:43:11.548Z,15.81
2023-09-18T23:45:15.229Z,15.81
2023-09-18T23:47:16.698Z,15.79
2023-09-18T23:49:21.289Z,15.74
2023-09-18T23:51:24.721Z,15.66
2023-09-18T23:53:36.625Z,15.63
2023-09-18T23:55:38.238Z,15.57
2023-09-18T23:57:39.734Z,15.54
2023-09-18T23:59:41.137Z,15.53
